createdAt,value
2019-03-24T00:00:07.057Z,61.45
2019-03-24T00:01:41.042Z,62.62
2019-03-24T00:03:03.205Z,61.25
2019-03-24T00:04:19.769Z,62.75
2019-03-24T00:05:37.141Z,62.75
2019-03-24T00:06:54.421Z,61.73
2019-03-24T00:08:11.034Z,63.45
2019-03-24T00:09:27.383Z,62.23
2019-03-24T00:10:44.043Z,60.38
2019-03-24T00:12:00.593Z,63.00
2019-03-24T00:13:17.105Z,66.80
2019-03-24T00:14:34.338Z,63.33
2019-03-24T00:15:51.516Z,61.98
2019-03-24T00:17:07.971Z,63.28
2019-03-24T00:18:25.187Z,61.42
2019-03-24T00:19:41.776Z,65.05
2019-03-24T00:20:58.730Z,65.57
2019-03-24T00:22:15.863Z,67.10
2019-03-24T00:23:33.101Z,65.40
2019-03-24T00:24:48.541Z,64.32
2019-03-24T00:26:12.928Z,64.07
2019-03-24T00:27:37.328Z,65.17
2019-03-24T00:28:54.202Z,65.05
2019-03-24T00:30:10.534Z,63.25
2019-03-24T00:31:26.940Z,66.50
2019-03-24T00:32:43.381Z,66.15
2019-03-24T00:33:59.700Z,68.20
2019-03-24T00:35:16.267Z,65.35
2019-03-24T00:36:32.843Z,67.05
2019-03-24T00:37:50.147Z,66.00
2019-03-24T00:39:06.650Z,68.87
2019-03-24T00:40:23.633Z,69.77
2019-03-24T00:41:40.812Z,66.92
2019-03-24T00:42:58.250Z,65.15
2019-03-24T00:44:15.325Z,67.87
2019-03-24T00:45:36.865Z,70.12
2019-03-24T00:46:50.710Z,69.10
2019-03-24T00:48:07.530Z,66.02
2019-03-24T00:49:24.609Z,72.17
2019-03-24T00:50:41.928Z,68.07
2019-03-24T00:51:58.693Z,66.02
2019-03-24T00:53:15.285Z,70.45
2019-03-24T00:54:32.233Z,68.52
2019-03-24T00:55:48.772Z,67.17
2019-03-24T00:57:05.076Z,65.60
2019-03-24T00:58:21.957Z,65.92
2019-03-24T00:59:38.395Z,71.67
2019-03-24T01:00:55.077Z,68.65
2019-03-24T01:02:11.557Z,68.95
2019-03-24T01:03:28.178Z,71.75
2019-03-24T01:04:45.413Z,73.17
2019-03-24T01:06:02.022Z,75.50
2019-03-24T01:07:22.552Z,69.75
2019-03-24T01:08:46.928Z,71.35
2019-03-24T01:10:03.632Z,71.60
2019-03-24T01:11:20.793Z,67.92
2019-03-24T01:12:37.210Z,70.83
2019-03-24T01:13:53.840Z,71.40
2019-03-24T01:15:11.044Z,70.42
2019-03-24T01:16:28.241Z,68.28
2019-03-24T01:17:44.589Z,71.15
2019-03-24T01:19:02.655Z,70.85
2019-03-24T01:20:19.837Z,70.57
2019-03-24T01:21:36.301Z,70.37
2019-03-24T01:22:53.278Z,71.42
2019-03-24T01:24:09.805Z,66.90
2019-03-24T01:25:26.301Z,68.05
2019-03-24T01:26:42.587Z,69.40
2019-03-24T01:27:59.644Z,68.20
2019-03-24T01:29:16.191Z,68.30
2019-03-24T01:30:33.464Z,71.70
2019-03-24T01:31:50.669Z,68.52
2019-03-24T01:33:07.331Z,72.17
2019-03-24T01:34:23.837Z,69.97
2019-03-24T01:35:40.739Z,67.80
2019-03-24T01:36:57.225Z,70.80
2019-03-24T01:38:13.544Z,70.75
2019-03-24T01:39:30.400Z,71.65
2019-03-24T01:40:46.888Z,73.62
2019-03-24T01:42:03.372Z,73.28
2019-03-24T01:43:19.949Z,68.92
2019-03-24T01:44:36.784Z,72.82
2019-03-24T01:45:58.430Z,75.45
2019-03-24T01:47:10.398Z,73.78
2019-03-24T01:48:26.845Z,74.58
2019-03-24T01:49:43.709Z,72.70
2019-03-24T01:51:00.051Z,73.57
2019-03-24T01:52:16.725Z,77.37
2019-03-24T01:53:33.628Z,75.42
2019-03-24T01:54:50.655Z,72.47
2019-03-24T01:56:07.174Z,71.57
2019-03-24T01:57:23.496Z,73.50
2019-03-24T01:58:40.522Z,73.33
2019-03-24T01:59:56.833Z,70.95
2019-03-24T02:01:13.505Z,73.10
2019-03-24T02:02:29.897Z,72.32
2019-03-24T02:03:46.424Z,75.47
2019-03-24T02:05:02.935Z,69.05
2019-03-24T02:06:19.378Z,70.80
2019-03-24T02:07:35.736Z,75.17
2019-03-24T02:08:52.961Z,76.15
2019-03-24T02:10:09.482Z,78.45
2019-03-24T02:11:25.806Z,70.25
2019-03-24T02:12:42.320Z,78.67
2019-03-24T02:13:59.497Z,77.70
2019-03-24T02:15:15.969Z,76.82
2019-03-24T02:16:32.803Z,75.72
2019-03-24T02:17:49.393Z,75.12
2019-03-24T02:19:06.060Z,78.15
2019-03-24T02:20:22.568Z,81.78
2019-03-24T02:21:38.028Z,79.70
2019-03-24T02:23:02.394Z,80.20
2019-03-24T02:24:18.890Z,76.02
2019-03-24T02:25:35.595Z,76.65
2019-03-24T02:26:51.970Z,78.70
2019-03-24T02:28:08.981Z,76.85
2019-03-24T02:29:25.555Z,74.32
2019-03-24T02:30:42.805Z,78.78
2019-03-24T02:31:59.226Z,76.12
2019-03-24T02:33:15.769Z,78.70
2019-03-24T02:34:33.072Z,78.50
2019-03-24T02:35:49.731Z,77.32
2019-03-24T02:37:06.979Z,77.35
2019-03-24T02:38:23.569Z,74.17
2019-03-24T02:39:40.301Z,76.02
2019-03-24T02:40:57.100Z,78.15
2019-03-24T02:42:14.146Z,75.97
2019-03-24T02:43:30.529Z,75.72
2019-03-24T02:44:46.901Z,74.22
2019-03-24T02:46:03.393Z,76.60
2019-03-24T02:47:19.804Z,78.67
2019-03-24T02:48:36.337Z,77.20
2019-03-24T02:49:53.555Z,77.80
2019-03-24T02:51:10.024Z,77.92
2019-03-24T02:52:26.405Z,74.15
2019-03-24T02:53:43.671Z,77.70
2019-03-24T02:55:00.390Z,73.50
2019-03-24T02:56:16.934Z,77.80
2019-03-24T02:57:33.365Z,79.12
2019-03-24T02:58:50.159Z,73.87
2019-03-24T03:00:08.095Z,81.47
2019-03-24T03:01:27.665Z,79.97
2019-03-24T03:02:44.546Z,79.30
2019-03-24T03:04:01.058Z,76.53
2019-03-24T03:05:17.619Z,77.17
2019-03-24T03:06:34.248Z,75.37
2019-03-24T03:07:50.711Z,76.77
2019-03-24T03:09:07.445Z,78.42
2019-03-24T03:10:24.045Z,81.20
2019-03-24T03:11:41.455Z,77.65
2019-03-24T03:12:57.826Z,80.15
2019-03-24T03:14:14.186Z,77.22
2019-03-24T03:15:30.661Z,78.55
2019-03-24T03:16:47.044Z,74.67
2019-03-24T03:18:03.583Z,78.00
2019-03-24T03:19:19.933Z,76.57
2019-03-24T03:20:37.007Z,75.50
2019-03-24T03:21:53.485Z,72.53
2019-03-24T03:23:10.723Z,75.52
2019-03-24T03:24:27.085Z,72.85
2019-03-24T03:25:44.149Z,75.55
2019-03-24T03:27:00.485Z,77.20
2019-03-24T03:28:17.382Z,74.30
2019-03-24T03:29:34.154Z,78.05
2019-03-24T03:30:51.617Z,77.97
2019-03-24T03:32:08.258Z,78.47
2019-03-24T03:33:24.759Z,75.40
2019-03-24T03:34:41.086Z,78.45
2019-03-24T03:35:58.150Z,79.03
2019-03-24T03:37:14.671Z,75.90
2019-03-24T03:38:31.174Z,77.90
2019-03-24T03:39:48.070Z,77.90
2019-03-24T03:41:04.517Z,76.82
2019-03-24T03:42:20.969Z,79.40
2019-03-24T03:43:37.261Z,82.17
2019-03-24T03:44:54.020Z,78.20
2019-03-24T03:46:10.387Z,78.50
2019-03-24T03:47:27.498Z,78.22
2019-03-24T03:48:43.897Z,72.05
2019-03-24T03:50:01.062Z,79.05
2019-03-24T03:51:17.535Z,77.53
2019-03-24T03:52:34.218Z,78.28
2019-03-24T03:53:50.625Z,76.33
2019-03-24T03:55:07.257Z,74.55
2019-03-24T03:56:23.846Z,74.03
2019-03-24T03:57:40.229Z,73.17
2019-03-24T03:58:56.633Z,73.35
2019-03-24T04:00:13.158Z,77.08
2019-03-24T04:01:30.181Z,72.85
2019-03-24T04:02:47.258Z,76.15
2019-03-24T04:04:03.754Z,72.47
2019-03-24T04:05:19.245Z,75.85
2019-03-24T04:06:43.605Z,65.62
2019-03-24T04:08:00.358Z,78.05
2019-03-24T04:09:17.304Z,77.00
2019-03-24T04:10:33.720Z,76.35
2019-03-24T04:11:50.239Z,75.45
2019-03-24T04:13:06.668Z,73.12
2019-03-24T04:14:23.533Z,73.80
2019-03-24T04:15:39.041Z,75.97
2019-03-24T04:18:39.915Z,79.03
2019-03-24T04:19:56.641Z,79.15
2019-03-24T04:21:13.327Z,81.60
2019-03-24T04:22:30.476Z,79.37
2019-03-24T04:23:47.089Z,82.67
2019-03-24T04:25:03.811Z,80.95
2019-03-24T04:26:21.273Z,83.75
2019-03-24T04:27:37.621Z,85.28
2019-03-24T04:28:54.250Z,78.75
2019-03-24T04:30:11.353Z,83.20
2019-03-24T04:31:28.092Z,85.70
2019-03-24T04:32:44.494Z,84.52
2019-03-24T04:34:01.009Z,85.62
2019-03-24T04:35:17.379Z,81.72
2019-03-24T04:36:33.891Z,82.75
2019-03-24T04:37:51.109Z,87.17
2019-03-24T04:39:07.650Z,86.80
2019-03-24T04:40:24.090Z,84.77
2019-03-24T04:41:40.589Z,90.12
2019-03-24T04:42:57.052Z,87.25
2019-03-24T04:44:13.488Z,83.27
2019-03-24T04:45:29.837Z,78.42
2019-03-24T04:46:46.219Z,83.37
2019-03-24T04:48:02.540Z,88.07
2019-03-24T04:49:19.186Z,82.17
2019-03-24T04:50:35.649Z,85.55
2019-03-24T04:51:52.017Z,87.53
2019-03-24T04:53:09.048Z,89.03
2019-03-24T04:54:25.816Z,93.67
2019-03-24T04:55:44.992Z,86.35
2019-03-24T04:57:01.825Z,85.25
2019-03-24T04:58:18.297Z,91.20
2019-03-24T04:59:34.604Z,86.37
2019-03-24T05:00:51.496Z,89.35
2019-03-24T05:02:08.719Z,91.40
2019-03-24T05:03:25.081Z,86.15
2019-03-24T05:04:41.556Z,94.22
2019-03-24T05:05:58.121Z,89.28
2019-03-24T05:07:15.359Z,90.65
2019-03-24T05:08:32.097Z,86.12
2019-03-24T05:09:48.944Z,83.85
2019-03-24T05:11:05.250Z,84.90
2019-03-24T05:12:21.926Z,84.20
2019-03-24T05:13:37.490Z,83.22
2019-03-24T05:15:20.865Z,85.90
2019-03-24T05:16:45.324Z,88.05
2019-03-24T05:18:01.761Z,88.92
2019-03-24T05:19:18.217Z,93.35
2019-03-24T05:20:35.405Z,77.37
2019-03-24T05:21:51.741Z,91.45
2019-03-24T05:23:08.211Z,97.47
2019-03-24T05:24:24.526Z,99.32
2019-03-24T05:25:40.923Z,101.50
2019-03-24T05:26:57.780Z,97.20
2019-03-24T05:28:14.238Z,97.70
2019-03-24T05:29:30.484Z,100.50
2019-03-24T05:30:47.046Z,97.22
2019-03-24T05:32:04.031Z,95.38
2019-03-24T05:33:21.261Z,96.78
2019-03-24T05:34:38.460Z,94.17
2019-03-24T05:35:55.589Z,97.88
2019-03-24T05:37:12.221Z,97.35
2019-03-24T05:38:28.829Z,92.70
2019-03-24T05:39:45.252Z,88.37
2019-03-24T05:41:02.232Z,91.95
2019-03-24T05:42:18.815Z,91.05
2019-03-24T05:43:35.480Z,91.32
2019-03-24T05:44:52.590Z,88.70
2019-03-24T05:46:09.171Z,83.17
2019-03-24T05:47:25.521Z,78.80
2019-03-24T05:48:42.077Z,79.97
2019-03-24T05:50:00.331Z,78.78
2019-03-24T05:51:17.538Z,75.28
2019-03-24T05:52:34.096Z,70.28
2019-03-24T05:53:50.940Z,70.87
2019-03-24T05:55:07.300Z,63.45
2019-03-24T05:56:23.809Z,65.28
2019-03-24T05:57:40.778Z,64.10
2019-03-24T05:58:57.313Z,62.73
2019-03-24T06:00:13.861Z,62.55
2019-03-24T06:01:30.222Z,61.70
2019-03-24T06:02:46.736Z,62.73
2019-03-24T06:04:03.364Z,61.55
2019-03-24T06:05:19.757Z,61.08
2019-03-24T06:06:36.234Z,56.60
2019-03-24T06:07:52.628Z,57.65
2019-03-24T06:09:08.928Z,57.45
2019-03-24T06:10:25.402Z,56.00
2019-03-24T06:11:40.928Z,55.03
2019-03-24T06:13:05.370Z,54.85
2019-03-24T06:14:29.720Z,52.00
2019-03-24T06:15:48.063Z,53.60
2019-03-24T06:17:04.598Z,54.98
2019-03-24T06:18:21.020Z,52.53
2019-03-24T06:19:37.788Z,51.02
2019-03-24T06:20:54.209Z,49.35
2019-03-24T06:22:10.596Z,52.15
2019-03-24T06:23:27.598Z,50.63
2019-03-24T06:24:44.640Z,51.88
2019-03-24T06:26:01.035Z,49.93
2019-03-24T06:27:17.344Z,51.15
2019-03-24T06:28:33.930Z,49.65
2019-03-24T06:29:50.457Z,51.45
2019-03-24T06:31:07.011Z,48.85
2019-03-24T06:32:23.796Z,50.43
2019-03-24T06:33:40.361Z,48.80
2019-03-24T06:34:56.810Z,47.83
2019-03-24T06:36:13.506Z,51.77
2019-03-24T06:37:29.868Z,50.45
2019-03-24T06:38:46.676Z,49.18
2019-03-24T06:40:03.345Z,49.73
2019-03-24T06:41:18.951Z,49.15
2019-03-24T06:42:43.391Z,51.28
2019-03-24T06:43:59.945Z,50.60
2019-03-24T06:45:27.757Z,49.18
2019-03-24T06:46:35.213Z,49.03
2019-03-24T06:47:57.930Z,49.10
2019-03-24T06:49:14.643Z,51.08
2019-03-24T06:50:31.946Z,46.48
2019-03-24T06:51:48.586Z,48.40
2019-03-24T06:53:05.150Z,48.10
2019-03-24T06:54:20.707Z,46.13
2019-03-24T06:55:45.062Z,49.65
2019-03-24T06:57:01.904Z,47.13
2019-03-24T06:58:18.421Z,49.27
2019-03-24T06:59:35.412Z,48.80
2019-03-24T07:00:51.795Z,49.67
2019-03-24T07:02:08.464Z,52.20
2019-03-24T07:03:25.633Z,49.63
2019-03-24T07:04:42.024Z,52.45
2019-03-24T07:05:59.153Z,52.85
2019-03-24T07:07:15.937Z,53.30
2019-03-24T07:08:32.540Z,52.88
2019-03-24T07:09:48.911Z,54.25
2019-03-24T07:11:10.501Z,51.40
2019-03-24T07:12:23.303Z,55.55
2019-03-24T07:13:39.759Z,51.70
2019-03-24T07:14:56.157Z,50.30
2019-03-24T07:16:12.665Z,49.23
2019-03-24T07:17:29.405Z,51.53
2019-03-24T07:18:45.908Z,52.90
2019-03-24T07:20:02.849Z,51.95
2019-03-24T07:21:19.194Z,52.75
2019-03-24T07:22:35.714Z,52.35
2019-03-24T07:23:52.085Z,51.77
2019-03-24T07:25:08.594Z,50.80
2019-03-24T07:26:25.522Z,50.52
2019-03-24T07:27:42.029Z,52.30
2019-03-24T07:28:58.384Z,53.83
2019-03-24T07:30:14.760Z,51.92
2019-03-24T07:31:31.352Z,52.80
2019-03-24T07:32:47.761Z,49.05
2019-03-24T07:34:04.231Z,50.48
2019-03-24T07:35:20.766Z,49.00
2019-03-24T07:36:37.045Z,48.98
2019-03-24T07:37:54.456Z,50.52
2019-03-24T07:39:11.241Z,52.88
2019-03-24T07:40:28.429Z,48.25
2019-03-24T07:41:45.023Z,47.55
2019-03-24T07:43:01.333Z,50.98
2019-03-24T07:44:17.632Z,49.35
2019-03-24T07:45:33.973Z,49.63
2019-03-24T07:46:50.798Z,51.58
2019-03-24T07:48:07.061Z,50.10
2019-03-24T07:49:23.629Z,49.20
2019-03-24T07:50:39.857Z,52.25
2019-03-24T07:51:56.381Z,53.90
2019-03-24T07:53:13.640Z,52.70
2019-03-24T07:54:30.164Z,49.93
2019-03-24T07:55:47.391Z,51.20
2019-03-24T07:57:04.609Z,50.17
2019-03-24T07:58:21.101Z,46.95
2019-03-24T07:59:38.472Z,46.83
2019-03-24T08:00:53.964Z,49.73
2019-03-24T08:02:18.440Z,46.95
2019-03-24T08:03:35.420Z,46.40
2019-03-24T08:04:52.603Z,51.30
2019-03-24T08:06:09.174Z,47.70
2019-03-24T08:07:25.596Z,48.73
2019-03-24T08:08:44.502Z,50.98
2019-03-24T08:10:00.658Z,49.40
2019-03-24T08:11:17.190Z,48.78
2019-03-24T08:12:33.928Z,45.48
2019-03-24T08:13:53.902Z,49.67
2019-03-24T08:15:08.681Z,47.95
2019-03-24T08:16:24.082Z,49.13
2019-03-24T08:17:41.224Z,48.15
2019-03-24T08:18:57.701Z,52.33
2019-03-24T08:20:14.235Z,50.35
2019-03-24T08:21:30.840Z,47.83
2019-03-24T08:22:47.320Z,48.13
2019-03-24T08:24:02.875Z,49.48
2019-03-24T08:25:19.999Z,47.45
2019-03-24T08:26:37.073Z,48.58
2019-03-24T08:27:53.614Z,48.25
2019-03-24T08:29:09.890Z,47.43
2019-03-24T08:30:28.706Z,47.13
2019-03-24T08:31:44.806Z,51.83
2019-03-24T08:33:01.788Z,50.25
2019-03-24T08:34:18.571Z,47.95
2019-03-24T08:35:35.871Z,51.33
2019-03-24T08:36:52.293Z,47.45
2019-03-24T08:38:09.297Z,49.13
2019-03-24T08:39:25.960Z,44.45
2019-03-24T08:40:42.452Z,45.63
2019-03-24T08:41:59.682Z,50.38
2019-03-24T08:43:20.362Z,49.33
2019-03-24T08:44:36.994Z,51.68
2019-03-24T08:45:54.047Z,52.65
2019-03-24T08:47:10.713Z,51.88
2019-03-24T08:48:27.370Z,55.60
2019-03-24T08:49:43.818Z,49.18
2019-03-24T08:51:00.156Z,52.13
2019-03-24T08:52:17.346Z,50.92
2019-03-24T08:53:33.899Z,50.60
2019-03-24T08:54:50.296Z,53.45
2019-03-24T08:56:07.289Z,51.42
2019-03-24T08:57:23.966Z,50.12
2019-03-24T08:58:40.483Z,50.80
2019-03-24T08:59:56.895Z,48.78
2019-03-24T09:01:12.375Z,48.55
2019-03-24T09:02:36.729Z,49.40
2019-03-24T09:03:53.066Z,47.65
2019-03-24T09:05:10.019Z,49.00
2019-03-24T09:06:26.553Z,46.42
2019-03-24T09:07:43.077Z,48.45
2019-03-24T09:09:00.325Z,48.05
2019-03-24T09:10:16.921Z,46.50
2019-03-24T09:11:33.321Z,42.60
2019-03-24T09:12:49.803Z,47.40
2019-03-24T09:14:06.509Z,46.53
2019-03-24T09:15:22.889Z,47.78
2019-03-24T09:16:39.377Z,45.67
2019-03-24T09:17:56.543Z,44.90
2019-03-24T09:19:13.193Z,44.70
2019-03-24T09:20:29.571Z,45.17
2019-03-24T09:21:46.374Z,45.40
2019-03-24T09:23:02.952Z,50.00
2019-03-24T09:24:19.951Z,43.95
2019-03-24T09:25:36.292Z,45.43
2019-03-24T09:26:53.299Z,45.73
2019-03-24T09:28:09.872Z,44.63
2019-03-24T09:29:26.750Z,47.65
2019-03-24T09:30:43.638Z,45.98
2019-03-24T09:32:00.621Z,45.23
2019-03-24T09:33:17.042Z,40.73
2019-03-24T09:34:33.606Z,43.80
2019-03-24T09:35:50.256Z,43.17
2019-03-24T09:37:05.752Z,43.78
2019-03-24T09:38:30.177Z,42.75
2019-03-24T09:39:47.438Z,43.68
2019-03-24T09:41:04.254Z,43.65
2019-03-24T09:42:20.747Z,41.95
2019-03-24T09:43:37.063Z,42.60
2019-03-24T09:44:53.520Z,40.33
2019-03-24T09:46:09.967Z,43.78
2019-03-24T09:47:26.507Z,44.15
2019-03-24T09:48:42.764Z,47.08
2019-03-24T09:49:59.551Z,48.02
2019-03-24T09:51:15.964Z,46.20
2019-03-24T09:52:33.022Z,46.65
2019-03-24T09:53:49.563Z,44.95
2019-03-24T09:55:06.355Z,42.25
2019-03-24T09:56:22.669Z,45.55
2019-03-24T09:57:39.724Z,47.00
2019-03-24T09:58:57.165Z,48.73
2019-03-24T10:00:13.771Z,45.90
2019-03-24T10:01:30.514Z,46.98
2019-03-24T10:02:47.035Z,42.90
2019-03-24T10:04:03.861Z,47.55
2019-03-24T10:05:19.446Z,47.27
2019-03-24T10:06:43.851Z,47.88
2019-03-24T10:08:00.464Z,45.03
2019-03-24T10:09:16.799Z,47.20
2019-03-24T10:10:33.413Z,47.10
2019-03-24T10:11:50.129Z,47.27
2019-03-24T10:13:06.659Z,43.28
2019-03-24T10:14:24.793Z,46.45
2019-03-24T10:15:41.367Z,45.38
2019-03-24T10:16:57.797Z,49.98
2019-03-24T10:18:13.341Z,45.75
2019-03-24T10:19:56.708Z,45.92
2019-03-24T10:21:13.381Z,46.28
2019-03-24T10:22:30.609Z,47.33
2019-03-24T10:23:46.984Z,45.43
2019-03-24T10:25:03.534Z,49.18
2019-03-24T10:26:20.008Z,46.42
2019-03-24T10:27:36.377Z,43.00
2019-03-24T10:28:52.706Z,44.83
2019-03-24T10:30:09.822Z,49.63
2019-03-24T10:31:29.099Z,50.33
2019-03-24T10:32:45.410Z,50.33
2019-03-24T10:34:01.922Z,46.60
2019-03-24T10:35:19.410Z,46.70
2019-03-24T10:36:36.968Z,48.90
2019-03-24T10:37:54.273Z,49.65
2019-03-24T10:39:11.373Z,46.80
2019-03-24T10:40:29.170Z,50.45
2019-03-24T10:41:46.538Z,53.52
2019-03-24T10:43:02.955Z,50.55
2019-03-24T10:44:19.332Z,49.73
2019-03-24T10:45:36.598Z,48.63
2019-03-24T10:46:54.753Z,47.83
2019-03-24T10:48:12.279Z,49.00
2019-03-24T10:49:28.745Z,54.73
2019-03-24T10:50:44.335Z,51.58
2019-03-24T10:52:00.795Z,51.85
2019-03-24T10:53:17.708Z,48.63
2019-03-24T10:54:34.274Z,51.75
2019-03-24T10:55:50.622Z,50.15
2019-03-24T10:57:07.196Z,48.35
2019-03-24T10:58:23.660Z,51.20
2019-03-24T10:59:40.311Z,50.00
2019-03-24T11:00:56.897Z,49.20
2019-03-24T11:02:13.441Z,51.35
2019-03-24T11:03:30.551Z,52.75
2019-03-24T11:04:47.207Z,48.63
2019-03-24T11:06:03.770Z,49.93
2019-03-24T11:07:21.097Z,50.28
2019-03-24T11:08:37.505Z,50.45
2019-03-24T11:09:53.909Z,50.17
2019-03-24T11:11:10.308Z,47.45
2019-03-24T11:12:27.605Z,50.23
2019-03-24T11:13:44.691Z,49.03
2019-03-24T11:15:01.253Z,49.00
2019-03-24T11:16:18.501Z,50.20
2019-03-24T11:17:35.044Z,48.33
2019-03-24T11:18:52.357Z,50.70
2019-03-24T11:20:08.607Z,49.33
2019-03-24T11:21:25.117Z,48.10
2019-03-24T11:22:42.398Z,48.87
2019-03-24T11:23:58.018Z,47.85
2019-03-24T11:25:22.481Z,48.42
2019-03-24T11:26:44.225Z,46.35
2019-03-24T11:28:00.676Z,48.35
2019-03-24T11:29:17.079Z,49.48
2019-03-24T11:30:33.840Z,48.42
2019-03-24T11:31:51.108Z,48.48
2019-03-24T11:33:07.766Z,47.05
2019-03-24T11:34:24.970Z,46.83
2019-03-24T11:35:41.892Z,47.25
2019-03-24T11:36:58.589Z,49.38
2019-03-24T11:38:15.052Z,49.27
2019-03-24T11:39:31.590Z,45.75
2019-03-24T11:40:48.803Z,48.78
2019-03-24T11:42:06.055Z,50.45
2019-03-24T11:43:22.461Z,51.00
2019-03-24T11:44:39.733Z,49.58
2019-03-24T11:45:56.450Z,49.98
2019-03-24T11:47:13.227Z,47.70
2019-03-24T11:48:29.585Z,46.37
2019-03-24T11:49:48.945Z,49.13
2019-03-24T11:51:04.368Z,51.73
2019-03-24T11:52:21.479Z,49.77
2019-03-24T11:53:38.181Z,50.20
2019-03-24T11:54:54.805Z,48.38
2019-03-24T11:56:11.192Z,48.60
2019-03-24T11:57:26.663Z,50.55
2019-03-24T11:58:51.243Z,49.83
2019-03-24T12:00:07.771Z,51.45
2019-03-24T12:01:24.273Z,50.25
2019-03-24T12:02:40.794Z,48.48
2019-03-24T12:03:57.449Z,49.55
2019-03-24T12:05:13.870Z,48.50
2019-03-24T12:06:30.224Z,49.27
2019-03-24T12:07:47.122Z,47.70
2019-03-24T12:09:04.936Z,49.10
2019-03-24T12:10:21.487Z,50.75
2019-03-24T12:11:38.605Z,47.40
2019-03-24T12:12:55.581Z,47.75
2019-03-24T12:14:13.369Z,47.85
2019-03-24T12:15:29.705Z,48.15
2019-03-24T12:16:47.040Z,48.48
2019-03-24T12:18:03.499Z,49.45
2019-03-24T12:19:19.915Z,50.03
2019-03-24T12:20:37.609Z,50.03
2019-03-24T12:21:54.821Z,48.83
2019-03-24T12:23:11.526Z,47.88
2019-03-24T12:24:28.836Z,49.77
2019-03-24T12:25:48.206Z,47.83
2019-03-24T12:27:04.953Z,48.20
2019-03-24T12:28:21.749Z,47.83
2019-03-24T12:29:38.034Z,47.13
2019-03-24T12:30:54.534Z,48.83
2019-03-24T12:32:11.511Z,48.63
2019-03-24T12:33:27.978Z,48.30
2019-03-24T12:34:45.205Z,48.78
2019-03-24T12:36:01.600Z,45.75
2019-03-24T12:37:18.889Z,48.85
2019-03-24T12:38:36.078Z,49.40
2019-03-24T12:39:52.554Z,49.08
2019-03-24T12:41:09.013Z,46.73
2019-03-24T12:42:25.230Z,47.27
2019-03-24T12:43:41.761Z,46.95
2019-03-24T12:44:58.328Z,47.35
2019-03-24T12:46:15.008Z,46.28
2019-03-24T12:47:32.193Z,47.62
2019-03-24T12:48:49.006Z,48.65
2019-03-24T12:50:09.245Z,47.15
2019-03-24T12:51:25.526Z,47.45
2019-03-24T12:52:41.999Z,47.60
2019-03-24T12:53:59.290Z,45.70
2019-03-24T12:55:15.704Z,44.83
2019-03-24T12:56:32.922Z,45.73
2019-03-24T12:57:50.449Z,47.08
2019-03-24T12:59:07.791Z,47.67
2019-03-24T13:00:24.116Z,46.02
2019-03-24T13:01:40.530Z,44.58
2019-03-24T13:02:57.799Z,47.05
2019-03-24T13:04:14.329Z,42.35
2019-03-24T13:05:30.760Z,45.35
2019-03-24T13:06:47.228Z,43.87
2019-03-24T13:08:05.264Z,42.60
2019-03-24T13:09:22.123Z,44.67
2019-03-24T13:10:39.046Z,44.18
2019-03-24T13:11:55.577Z,42.10
2019-03-24T13:13:12.157Z,43.55
2019-03-24T13:14:30.656Z,43.83
2019-03-24T13:15:46.972Z,44.08
2019-03-24T13:17:03.247Z,43.30
2019-03-24T13:18:19.753Z,44.20
2019-03-24T13:19:37.011Z,44.15
2019-03-24T13:20:53.508Z,41.68
2019-03-24T13:22:11.685Z,42.58
2019-03-24T13:23:28.912Z,43.90
2019-03-24T13:24:45.394Z,43.33
2019-03-24T13:26:01.784Z,43.48
2019-03-24T13:27:19.021Z,41.88
2019-03-24T13:28:35.794Z,42.15
2019-03-24T13:29:52.175Z,43.35
2019-03-24T13:31:08.915Z,45.15
2019-03-24T13:32:25.205Z,44.23
2019-03-24T13:33:41.818Z,45.75
2019-03-24T13:35:00.333Z,46.00
2019-03-24T13:36:24.813Z,46.05
2019-03-24T13:37:41.439Z,43.00
2019-03-24T13:38:58.360Z,43.73
2019-03-24T13:40:14.630Z,44.90
2019-03-24T13:41:31.037Z,43.20
2019-03-24T13:42:47.617Z,44.15
2019-03-24T13:44:04.248Z,43.50
2019-03-24T13:45:21.005Z,42.78
2019-03-24T13:46:37.609Z,44.33
2019-03-24T13:47:53.934Z,44.90
2019-03-24T13:49:11.053Z,44.55
2019-03-24T13:50:31.778Z,44.63
2019-03-24T13:51:46.751Z,43.48
2019-03-24T13:53:03.192Z,42.67
2019-03-24T13:54:18.731Z,43.35
2019-03-24T13:55:43.133Z,43.87
2019-03-24T13:56:59.569Z,42.62
2019-03-24T13:58:16.094Z,42.33
2019-03-24T13:59:32.662Z,43.80
2019-03-24T14:00:49.357Z,42.33
2019-03-24T14:02:06.369Z,43.58
2019-03-24T14:03:22.652Z,44.30
2019-03-24T14:04:39.003Z,43.30
2019-03-24T14:05:55.865Z,45.35
2019-03-24T14:07:12.699Z,45.90
2019-03-24T14:08:29.718Z,44.33
2019-03-24T14:09:46.258Z,44.45
2019-03-24T14:11:03.273Z,45.98
2019-03-24T14:12:19.976Z,45.95
2019-03-24T14:13:36.327Z,42.45
2019-03-24T14:14:53.007Z,44.40
2019-03-24T14:16:09.367Z,44.00
2019-03-24T14:17:25.911Z,45.92
2019-03-24T14:18:42.508Z,44.42
2019-03-24T14:20:00.837Z,46.40
2019-03-24T14:21:17.489Z,42.75
2019-03-24T14:22:34.098Z,43.65
2019-03-24T14:23:51.210Z,43.87
2019-03-24T14:25:07.823Z,43.63
2019-03-24T14:26:24.961Z,45.17
2019-03-24T14:27:41.586Z,45.65
2019-03-24T14:28:58.841Z,42.73
2019-03-24T14:30:15.264Z,45.08
2019-03-24T14:31:30.720Z,43.87
2019-03-24T14:32:55.141Z,42.70
2019-03-24T14:34:11.393Z,43.65
2019-03-24T14:35:27.933Z,46.10
2019-03-24T14:36:44.368Z,43.28
2019-03-24T14:38:00.716Z,42.78
2019-03-24T14:39:17.002Z,46.28
2019-03-24T14:40:33.445Z,44.75
2019-03-24T14:41:50.013Z,45.20
2019-03-24T14:43:07.252Z,44.73
2019-03-24T14:44:24.517Z,44.65
2019-03-24T14:45:41.306Z,44.85
2019-03-24T14:46:58.082Z,43.08
2019-03-24T14:48:14.517Z,44.13
2019-03-24T14:49:30.954Z,42.62
2019-03-24T14:50:54.337Z,43.08
2019-03-24T14:52:05.758Z,42.23
2019-03-24T14:53:22.204Z,46.15
2019-03-24T14:54:39.752Z,44.55
2019-03-24T14:55:56.628Z,44.38
2019-03-24T14:57:13.858Z,45.98
2019-03-24T14:58:29.359Z,43.33
2019-03-24T14:59:46.501Z,43.78
2019-03-24T15:01:03.498Z,44.90
2019-03-24T15:02:20.488Z,44.63
2019-03-24T15:03:37.733Z,45.65
2019-03-24T15:04:54.925Z,44.42
2019-03-24T15:06:11.354Z,45.15
2019-03-24T15:07:28.681Z,44.15
2019-03-24T15:08:45.229Z,45.40
2019-03-24T15:10:01.854Z,44.73
2019-03-24T15:11:19.900Z,45.17
2019-03-24T15:12:37.001Z,43.60
2019-03-24T15:13:53.413Z,45.05
2019-03-24T15:15:10.568Z,43.87
2019-03-24T15:16:27.126Z,45.52
2019-03-24T15:17:43.733Z,43.33
2019-03-24T15:19:00.849Z,42.35
2019-03-24T15:20:17.303Z,44.88
2019-03-24T15:21:33.891Z,41.88
2019-03-24T15:22:50.526Z,42.45
2019-03-24T15:24:07.462Z,44.05
2019-03-24T15:25:22.955Z,44.27
2019-03-24T15:28:24.008Z,43.65
2019-03-24T15:29:40.893Z,43.48
2019-03-24T15:30:57.407Z,44.13
2019-03-24T15:32:14.601Z,45.25
2019-03-24T15:33:31.115Z,45.45
2019-03-24T15:34:48.172Z,43.28
2019-03-24T15:36:04.612Z,43.75
2019-03-24T15:37:21.840Z,43.28
2019-03-24T15:38:38.406Z,43.80
2019-03-24T15:39:55.688Z,44.67
2019-03-24T15:41:12.260Z,44.48
2019-03-24T15:42:29.407Z,43.35
2019-03-24T15:43:46.534Z,42.95
2019-03-24T15:45:03.561Z,43.60
2019-03-24T15:46:20.168Z,43.63
2019-03-24T15:47:36.699Z,44.88
2019-03-24T15:48:53.048Z,43.65
2019-03-24T15:50:10.086Z,44.75
2019-03-24T15:51:26.653Z,45.28
2019-03-24T15:52:43.037Z,42.10
2019-03-24T15:54:00.189Z,44.30
2019-03-24T15:55:16.635Z,42.80
2019-03-24T15:56:33.932Z,44.15
2019-03-24T15:57:50.520Z,44.00
2019-03-24T15:59:07.291Z,44.80
2019-03-24T16:00:24.313Z,43.50
2019-03-24T16:01:40.905Z,43.50
2019-03-24T16:02:57.272Z,42.95
2019-03-24T16:04:14.382Z,43.70
2019-03-24T16:05:33.541Z,42.73
2019-03-24T16:06:49.981Z,44.30
2019-03-24T16:08:06.853Z,41.68
2019-03-24T16:09:23.300Z,41.40
2019-03-24T16:10:40.080Z,40.67
2019-03-24T16:11:56.813Z,40.38
2019-03-24T16:13:13.338Z,41.00
2019-03-24T16:14:29.919Z,41.55
2019-03-24T16:15:46.501Z,41.98
2019-03-24T16:17:02.974Z,40.10
2019-03-24T16:18:19.924Z,41.05
2019-03-24T16:19:36.421Z,41.48
2019-03-24T16:20:52.901Z,39.75
2019-03-24T16:22:10.118Z,38.45
2019-03-24T16:23:26.671Z,39.45
2019-03-24T16:24:43.908Z,40.73
2019-03-24T16:26:00.964Z,38.80
2019-03-24T16:27:18.435Z,40.75
2019-03-24T16:28:34.993Z,39.75
2019-03-24T16:29:51.417Z,39.83
2019-03-24T16:31:08.324Z,39.38
2019-03-24T16:32:24.965Z,38.92
2019-03-24T16:33:41.539Z,38.02
2019-03-24T16:35:01.820Z,39.42